Terminal Aerodrome Forecast
Issued by NWS El Paso, TX

Current Version | Previous Version | Text Only | Print | Product List | Glossary On
Versions: 1 2 3 4 5 6 7 8 9 10 11 12 13
231
FTUS44 KEPZ 221735
TAFELP
TAF
KELP 221735Z 2218/2318 17008KT P6SM FEW060 FEW100
     FM222200 19008KT P6SM SCT100 SCT250
     FM230500 26008KT P6SM SCT090 SCT140
     FM231700 23007KT P6SM SCT060=

USA.gov is the U.S. government's official web portal to all federal, state and local government web resources and services.